createdAt,value
2023-02-07T00:01:45.378Z,1.60
2023-02-07T00:06:49.932Z,1.60
2023-02-07T00:11:53.073Z,1.60
2023-02-07T00:16:56.209Z,1.60
2023-02-07T00:22:00.945Z,1.60
2023-02-07T00:27:04.149Z,1.60
2023-02-07T00:32:07.436Z,1.60
2023-02-07T00:37:11.950Z,1.60
2023-02-07T00:42:15.073Z,1.60
2023-02-07T00:47:18.170Z,1.60
2023-02-07T00:52:22.660Z,1.60
2023-02-07T00:57:25.856Z,1.60
2023-02-07T01:02:28.988Z,1.60
2023-02-07T01:07:34.400Z,1.50
2023-02-07T01:12:37.619Z,1.50
2023-02-07T01:17:40.753Z,1.50
2023-02-07T01:22:45.521Z,1.40
2023-02-07T01:27:48.676Z,1.40
2023-02-07T01:32:51.821Z,1.40
2023-02-07T01:37:58.432Z,1.30
2023-02-07T01:43:01.553Z,1.30
2023-02-07T01:48:09.463Z,1.20
2023-02-07T01:53:16.953Z,1.20
2023-02-07T01:58:20.619Z,1.20
2023-02-07T02:03:23.899Z,1.30
2023-02-07T02:08:28.490Z,1.20
2023-02-07T02:13:38.567Z,1.20
2023-02-07T02:18:54.721Z,1.20
2023-02-07T02:24:35.445Z,1.10
2023-02-07T02:30:26.832Z,1.20
2023-02-07T02:35:36.992Z,1.10
2023-02-07T02:40:47.465Z,1.20
2023-02-07T02:45:55.306Z,1.00
2023-02-07T02:51:00.129Z,1.00
2023-02-07T02:56:22.225Z,1.00
2023-02-07T03:01:30.362Z,0.90
2023-02-07T03:06:47.644Z,0.90
2023-02-07T03:11:58.682Z,0.90
2023-02-07T03:17:14.288Z,0.90
2023-02-07T03:22:21.818Z,0.90
2023-02-07T03:27:27.015Z,0.80
2023-02-07T03:32:35.958Z,0.70
2023-02-07T03:37:43.591Z,0.70
2023-02-07T03:42:50.981Z,0.80
2023-02-07T03:47:54.154Z,0.60
2023-02-07T03:52:58.624Z,0.60
2023-02-07T03:58:01.900Z,0.60
2023-02-07T04:03:05.941Z,0.50
2023-02-07T04:08:10.603Z,0.50
2023-02-07T04:13:13.765Z,0.50
2023-02-07T04:18:17.077Z,0.40
2023-02-07T04:23:21.538Z,0.40
2023-02-07T04:28:24.647Z,0.40
2023-02-07T04:33:27.812Z,0.40
2023-02-07T04:38:32.395Z,0.40
2023-02-07T04:43:37.980Z,0.30
2023-02-07T04:48:41.066Z,0.40
2023-02-07T04:53:45.811Z,0.30
2023-02-07T04:58:49.051Z,0.30
2023-02-07T05:03:52.202Z,0.30
2023-02-07T05:08:56.845Z,0.20
2023-02-07T05:13:59.938Z,0.20
2023-02-07T05:19:03.036Z,0.20
2023-02-07T05:24:08.192Z,0.10
2023-02-07T05:29:11.274Z,0.10
2023-02-07T05:34:14.456Z,0.00
2023-02-07T05:39:18.949Z,0.00
2023-02-07T05:44:22.052Z,-0.10
2023-02-07T05:49:25.240Z,-0.10
2023-02-07T05:54:29.898Z,-0.10
2023-02-07T05:59:33.162Z,-0.20
2023-02-07T06:04:36.410Z,-0.20
2023-02-07T06:09:40.956Z,-0.20
2023-02-07T06:14:44.054Z,-0.30
2023-02-07T06:19:47.248Z,-0.30
2023-02-07T06:24:51.810Z,-0.40
2023-02-07T06:29:54.968Z,-0.40
2023-02-07T06:34:58.069Z,-0.30
2023-02-07T06:40:03.318Z,-0.30
2023-02-07T06:45:06.971Z,-0.30
2023-02-07T06:50:10.469Z,-0.30
2023-02-07T06:55:15.010Z,-0.30
2023-02-07T07:00:18.852Z,-0.40
2023-02-07T07:05:22.059Z,-0.40
2023-02-07T07:10:26.631Z,-0.40
2023-02-07T07:15:29.778Z,-0.50
2023-02-07T07:20:32.899Z,-0.50
2023-02-07T07:25:37.847Z,-0.50
2023-02-07T07:30:41.407Z,-0.50
2023-02-07T07:35:44.583Z,-0.60
2023-02-07T07:40:49.426Z,-0.60
2023-02-07T07:45:54.172Z,-0.60
2023-02-07T07:50:57.322Z,-0.60
2023-02-07T07:56:01.834Z,-0.60
2023-02-07T08:01:05.219Z,-0.50
2023-02-07T08:06:09.459Z,-0.50
2023-02-07T08:11:14.153Z,-0.40
2023-02-07T08:16:18.388Z,-0.30
2023-02-07T08:21:21.495Z,-0.20
2023-02-07T08:26:26.092Z,-0.10
2023-02-07T08:31:29.392Z,0.10
2023-02-07T08:36:32.635Z,0.30
2023-02-07T08:41:37.149Z,0.40
2023-02-07T08:46:40.318Z,0.60
2023-02-07T08:51:43.720Z,0.80
2023-02-07T08:56:48.395Z,1.00
2023-02-07T09:01:51.639Z,1.30
2023-02-07T09:06:54.948Z,1.40
2023-02-07T09:11:59.464Z,1.70
2023-02-07T09:17:02.698Z,1.90
2023-02-07T09:22:06.386Z,2.10
2023-02-07T09:27:11.213Z,2.50
2023-02-07T09:32:14.495Z,2.50
2023-02-07T09:37:18.305Z,2.70
2023-02-07T09:42:29.772Z,2.90
2023-02-07T09:47:35.896Z,3.00
2023-02-07T09:52:45.842Z,3.20
2023-02-07T09:57:53.815Z,3.40
2023-02-07T10:03:02.444Z,3.50
2023-02-07T10:08:05.809Z,3.80
2023-02-07T10:13:36.588Z,3.90
2023-02-07T10:18:46.085Z,4.10
2023-02-07T10:23:59.500Z,4.30
2023-02-07T10:29:35.959Z,4.50
2023-02-07T10:34:43.033Z,4.60
2023-02-07T10:39:49.987Z,4.70
2023-02-07T10:44:54.876Z,4.80
2023-02-07T10:49:59.667Z,4.90
2023-02-07T10:55:04.877Z,5.00
2023-02-07T11:00:24.579Z,5.10
2023-02-07T11:05:33.764Z,5.10
2023-02-07T11:10:38.963Z,5.20
2023-02-07T11:15:51.836Z,5.40
2023-02-07T11:20:56.402Z,5.50
2023-02-07T11:25:59.606Z,5.60
2023-02-07T11:31:08.147Z,5.70
2023-02-07T11:36:23.371Z,5.80
2023-02-07T11:41:28.396Z,5.90
2023-02-07T11:46:36.888Z,6.00
2023-02-07T11:51:40.115Z,6.00
2023-02-07T11:56:45.406Z,6.00
2023-02-07T12:01:53.477Z,5.90
2023-02-07T12:07:02.262Z,5.90
2023-02-07T12:12:12.276Z,5.90
2023-02-07T12:17:22.010Z,6.00
2023-02-07T12:22:29.863Z,5.90
2023-02-07T12:27:39.255Z,6.00
2023-02-07T12:32:52.355Z,6.10
2023-02-07T12:38:01.834Z,6.20
2023-02-07T12:43:11.243Z,6.30
2023-02-07T12:48:21.079Z,6.30
2023-02-07T12:53:38.311Z,6.40
2023-02-07T12:58:51.074Z,6.40
2023-02-07T13:04:26.559Z,6.50
2023-02-07T13:09:38.086Z,6.50
2023-02-07T13:14:55.554Z,6.50
2023-02-07T13:20:06.236Z,6.50
2023-02-07T13:25:20.245Z,6.50
2023-02-07T13:30:25.103Z,6.50
2023-02-07T13:35:34.077Z,6.60
2023-02-07T13:40:48.613Z,6.70
2023-02-07T13:45:59.264Z,6.70
2023-02-07T13:51:12.778Z,6.70
2023-02-07T13:56:34.778Z,6.70
2023-02-07T14:01:38.292Z,6.80
2023-02-07T14:06:44.109Z,6.80
2023-02-07T14:11:51.117Z,6.80
2023-02-07T14:16:56.366Z,6.80
2023-02-07T14:22:15.855Z,6.80
2023-02-07T14:27:34.231Z,6.80
2023-02-07T14:32:43.370Z,6.80
2023-02-07T14:37:51.668Z,6.80
2023-02-07T14:43:01.275Z,6.80
2023-02-07T14:48:05.839Z,6.80
2023-02-07T14:53:15.422Z,6.80
2023-02-07T14:58:28.843Z,6.80
2023-02-07T15:03:34.953Z,6.80
2023-02-07T15:08:38.482Z,6.80
2023-02-07T15:13:45.298Z,6.80
2023-02-07T15:18:52.862Z,6.70
2023-02-07T15:23:59.691Z,6.70
2023-02-07T15:29:06.899Z,6.60
2023-02-07T15:34:16.714Z,6.60
2023-02-07T15:39:23.095Z,6.60
2023-02-07T15:44:29.482Z,6.60
2023-02-07T15:49:35.407Z,6.50
2023-02-07T15:54:40.701Z,6.40
2023-02-07T15:59:45.268Z,6.40
2023-02-07T16:04:48.359Z,6.30
2023-02-07T16:09:53.864Z,6.30
2023-02-07T16:14:58.768Z,6.30
2023-02-07T16:20:01.833Z,6.40
2023-02-07T16:25:05.803Z,6.50
2023-02-07T16:30:15.978Z,6.70
2023-02-07T16:35:22.252Z,6.80
2023-02-07T16:40:26.696Z,6.80
2023-02-07T16:45:32.628Z,6.80
2023-02-07T16:50:35.799Z,6.90
2023-02-07T16:55:40.724Z,6.80
2023-02-07T17:00:45.193Z,6.70
2023-02-07T17:05:48.337Z,6.60
2023-02-07T17:10:55.151Z,6.50
2023-02-07T17:15:59.762Z,6.30
2023-02-07T17:21:03.173Z,6.20
2023-02-07T17:26:07.529Z,6.10
2023-02-07T17:31:13.615Z,6.00
2023-02-07T17:36:17.341Z,5.90
2023-02-07T17:41:21.495Z,5.80
2023-02-07T17:46:28.052Z,5.60
2023-02-07T17:51:31.151Z,5.50
2023-02-07T17:56:34.684Z,5.40
2023-02-07T18:01:39.108Z,5.30
2023-02-07T18:06:42.214Z,5.20
2023-02-07T18:11:45.819Z,5.10
2023-02-07T18:16:50.352Z,5.00
2023-02-07T18:21:53.435Z,5.00
2023-02-07T18:26:56.523Z,4.90
2023-02-07T18:32:01.150Z,4.80
2023-02-07T18:37:04.254Z,4.70
2023-02-07T18:42:07.423Z,4.60
2023-02-07T18:47:11.875Z,4.40
2023-02-07T18:52:15.667Z,4.50
2023-02-07T18:57:18.931Z,4.20
2023-02-07T19:02:24.536Z,4.00
2023-02-07T19:07:27.762Z,3.90
2023-02-07T19:12:31.083Z,3.70
2023-02-07T19:17:36.290Z,3.60
2023-02-07T19:22:39.567Z,3.70
2023-02-07T19:27:42.619Z,3.60
2023-02-07T19:32:47.109Z,3.50
2023-02-07T19:37:50.196Z,3.50
2023-02-07T19:42:53.318Z,3.50
2023-02-07T19:47:57.791Z,3.40
2023-02-07T19:53:00.842Z,3.40
2023-02-07T19:58:03.932Z,3.30
2023-02-07T20:03:08.395Z,3.20
2023-02-07T20:08:12.249Z,3.20
2023-02-07T20:13:16.282Z,3.10
2023-02-07T20:18:20.714Z,3.00
2023-02-07T20:23:23.799Z,3.10
2023-02-07T20:28:29.428Z,2.90
2023-02-07T20:33:35.889Z,2.70
2023-02-07T20:38:39.213Z,2.50
2023-02-07T20:43:43.631Z,2.50
2023-02-07T20:48:48.161Z,2.40
2023-02-07T20:53:51.294Z,2.40
2023-02-07T20:58:55.312Z,2.30
2023-02-07T21:04:02.518Z,2.30
2023-02-07T21:09:07.924Z,2.20
2023-02-07T21:14:14.047Z,2.20
2023-02-07T21:19:18.580Z,2.10
2023-02-07T21:24:22.105Z,2.10
2023-02-07T21:29:25.946Z,2.10
2023-02-07T21:34:30.478Z,2.00
2023-02-07T21:39:33.648Z,2.00
2023-02-07T21:44:36.845Z,1.90
2023-02-07T21:49:41.361Z,1.90
2023-02-07T21:54:44.450Z,1.90
2023-02-07T21:59:47.762Z,1.80
2023-02-07T22:04:52.370Z,1.70
2023-02-07T22:09:55.485Z,1.70
2023-02-07T22:14:58.690Z,1.60
2023-02-07T22:20:03.189Z,1.60
2023-02-07T22:25:06.786Z,1.60
2023-02-07T22:30:11.313Z,1.50
2023-02-07T22:35:16.075Z,1.50
2023-02-07T22:40:19.373Z,1.40
2023-02-07T22:45:22.486Z,1.40
2023-02-07T22:50:28.206Z,1.30
2023-02-07T22:55:32.767Z,1.20
2023-02-07T23:00:36.011Z,1.20
2023-02-07T23:05:40.809Z,1.10
2023-02-07T23:10:44.135Z,1.10
2023-02-07T23:15:47.713Z,1.10
2023-02-07T23:20:52.258Z,1.00
2023-02-07T23:25:57.932Z,1.00
2023-02-07T23:31:01.233Z,0.90
2023-02-07T23:36:06.960Z,1.00
2023-02-07T23:41:10.559Z,0.80
2023-02-07T23:46:15.294Z,0.70
2023-02-07T23:51:19.886Z,0.60
2023-02-07T23:56:24.595Z,0.50
